Time;durP1;ratioP1;P1;durP2;ratioP2;P2;SDS_P1;SDS_P2;PMS_P1;PMS_P2;Temp;Humidity;BMP_temperature;BMP_pressure;BME280_temperature;BME280_humidity;BME280_pressure;Samples;Min_cycle;Max_cycle;Signal;HPM_P1;HPM_P2
2022/06/02 00:01:06;;;;;;;7.12;5.20;;;;;;;12.41;71.66;100133.45;2240675;77;21451;-70
2022/06/02 00:04:39;;;;;;;6.03;4.78;;;;;;;12.43;71.67;100112.30;2236678;78;20999;-70
2022/06/02 00:08:04;;;;;;;7.30;5.33;;;;;;;12.29;71.52;100113.09;2238691;78;21120;-70
2022/06/02 00:11:16;;;;;;;8.03;5.20;;;;;;;12.28;71.91;100141.53;2239454;78;22312;-71
2022/06/02 00:14:35;;;;;;;6.20;5.60;;;;;;;12.29;72.26;100142.34;2246694;78;21103;-70
2022/06/02 00:17:50;;;;;;;7.55;6.22;;;;;;;12.30;72.32;100147.51;2244553;78;20982;-73
2022/06/02 00:21:26;;;;;;;11.28;7.28;;;;;;;12.35;72.49;100156.27;2244690;77;21578;-70
2022/06/02 00:25:09;;;;;;;7.75;6.30;;;;;;;12.37;72.76;100170.23;2242285;78;21085;-72
2022/06/02 00:28:45;;;;;;;8.95;6.03;;;;;;;12.29;72.91;100173.77;2244439;78;21533;-70
2022/06/02 00:32:17;;;;;;;8.58;5.80;;;;;;;12.29;73.00;100170.28;2246698;78;21033;-71
2022/06/02 00:35:43;;;;;;;8.93;6.33;;;;;;;12.30;73.08;100179.91;2236703;77;21124;-70
2022/06/02 00:38:44;;;;;;;5.80;5.08;;;;;;;12.29;73.32;100175.09;2244511;78;21057;-70
2022/06/02 00:42:00;;;;;;;7.33;4.97;;;;;;;12.32;73.29;100180.06;2236131;78;20911;-70
2022/06/02 00:45:07;;;;;;;6.75;5.15;;;;;;;12.30;73.25;100183.91;2241166;78;22869;-70
2022/06/02 00:48:22;;;;;;;5.95;5.35;;;;;;;12.29;73.23;100194.23;2240924;78;22230;-70
2022/06/02 00:51:35;;;;;;;5.53;5.03;;;;;;;12.32;73.40;100182.73;2236604;78;21461;-70
2022/06/02 00:59:13;;;;;;;5.28;4.72;;;;;;;12.26;73.24;100183.94;2247466;78;21002;-70
2022/06/02 01:02:16;;;;;;;5.33;4.83;;;;;;;12.26;73.51;100175.45;2238540;78;21539;-70
2022/06/02 01:05:41;;;;;;;6.05;5.10;;;;;;;12.20;73.41;100181.48;2242730;78;21024;-70
2022/06/02 01:08:59;;;;;;;5.80;5.20;;;;;;;12.23;73.70;100179.80;2249553;77;21441;-73
2022/06/02 01:12:27;;;;;;;5.50;5.00;;;;;;;12.26;73.75;100171.97;2250634;77;21005;-71
2022/06/02 01:15:55;;;;;;;5.30;4.80;;;;;;;12.08;73.53;100165.10;2254924;77;21001;-70
2022/06/02 01:19:11;;;;;;;7.92;4.97;;;;;;;11.97;73.78;100169.99;2250543;77;21088;-71
2022/06/02 01:22:55;;;;;;;5.80;5.20;;;;;;;11.95;73.81;100183.45;2247080;77;20923;-70
2022/06/02 01:26:25;;;;;;;5.55;4.95;;;;;;;11.97;73.71;100182.78;2260341;77;20978;-70
2022/06/02 01:29:50;;;;;;;5.67;5.08;;;;;;;11.97;73.90;100189.43;2250482;77;21410;-70
2022/06/02 01:33:02;;;;;;;6.10;5.50;;;;;;;11.98;73.93;100187.09;2240764;77;21364;-70
2022/06/02 01:36:26;;;;;;;5.70;5.08;;;;;;;12.01;74.14;100186.73;2250408;77;22257;-73
2022/06/02 01:40:00;;;;;;;5.62;5.10;;;;;;;11.99;74.36;100185.25;2258906;77;21069;-73
2022/06/02 01:43:15;;;;;;;5.47;4.97;;;;;;;11.98;74.39;100180.44;2255064;77;20987;-71
2022/06/02 01:46:38;;;;;;;5.90;5.30;;;;;;;11.98;74.36;100183.09;2243447;77;20966;-70
2022/06/02 01:50:13;;;;;;;5.33;4.83;;;;;;;11.98;74.52;100180.44;2250169;77;21014;-70
2022/06/02 01:53:43;;;;;;;5.97;5.37;;;;;;;11.98;74.61;100176.45;2244349;77;21053;-71
2022/06/02 01:57:12;;;;;;;6.22;5.40;;;;;;;11.98;74.62;100181.77;2248851;77;20998;-70
2022/06/02 02:00:18;;;;;;;5.42;4.92;;;;;;;11.95;74.54;100183.45;2252524;77;21025;-70
2022/06/02 02:03:46;;;;;;;6.75;5.47;;;;;;;11.92;74.81;100193.11;2253861;77;20996;-71
2022/06/02 02:07:18;;;;;;;6.92;5.37;;;;;;;11.91;74.88;100194.12;2246446;77;20979;-71
2022/06/02 02:11:03;;;;;;;6.50;5.90;;;;;;;11.93;75.00;100196.08;2245991;78;21513;-71
2022/06/02 02:14:36;;;;;;;6.60;5.67;;;;;;;11.97;75.27;100194.75;2245057;78;21048;-69
2022/06/02 02:18:19;;;;;;;6.58;5.90;;;;;;;11.95;75.10;100191.42;2244612;78;21664;-71
2022/06/02 02:21:29;;;;;;;6.35;5.70;;;;;;;11.95;75.18;100179.46;2242098;78;22151;-71
2022/06/02 02:25:03;;;;;;;7.62;6.08;;;;;;;11.89;75.22;100184.15;2247955;78;21024;-70
2022/06/02 02:28:36;;;;;;;7.75;6.92;;;;;;;11.83;75.32;100178.17;2243903;78;20982;-70
2022/06/02 02:32:11;;;;;;;5.22;4.72;;;;;;;11.85;75.56;100182.79;2250970;78;21008;-70
2022/06/02 02:35:27;;;;;;;6.72;5.97;;;;;;;11.83;75.43;100180.83;2243015;78;21026;-71
2022/06/02 02:39:09;;;;;;;8.55;5.50;;;;;;;11.81;75.51;100178.84;2250929;78;21037;-73
2022/06/02 02:42:32;;;;;;;6.50;5.90;;;;;;;11.79;75.41;100176.84;2243329;78;21557;-70
2022/06/02 02:45:48;;;;;;;8.15;6.55;;;;;;;11.77;75.45;100175.70;2238921;78;21036;-69
2022/06/02 02:49:17;;;;;;;6.65;6.05;;;;;;;11.78;75.51;100173.87;2233784;78;20955;-69
2022/06/02 02:52:33;;;;;;;9.68;6.90;;;;;;;11.75;75.42;100172.89;2242150;78;20964;-69
2022/06/02 02:56:09;;;;;;;11.95;6.72;;;;;;;11.75;75.62;100178.20;2247272;78;21606;-69
2022/06/02 02:59:30;;;;;;;7.53;6.00;;;;;;;11.76;75.51;100189.16;2245372;78;20947;-69
2022/06/02 03:02:53;;;;;;;15.78;5.95;;;;;;;11.76;75.72;100185.16;2244914;78;21476;-70
2022/06/02 03:06:17;;;;;;;8.00;6.25;;;;;;;11.78;75.90;100191.15;2247360;77;20942;-69
2022/06/02 03:09:44;;;;;;;7.17;5.67;;;;;;;11.77;75.97;100193.45;2248465;78;21470;-69
2022/06/02 03:13:09;;;;;;;6.65;6.05;;;;;;;11.79;76.15;100219.38;2242225;78;20966;-70
2022/06/02 03:16:13;;;;;;;8.85;5.90;;;;;;;11.82;76.33;100228.33;2248674;78;21073;-70
2022/06/02 03:19:34;;;;;;;8.05;5.80;;;;;;;11.85;76.56;100249.25;2249528;78;20989;-70
2022/06/02 03:23:13;;;;;;;7.83;6.28;;;;;;;11.80;76.70;100252.95;2236280;78;21061;-71
2022/06/02 03:26:45;;;;;;;7.50;6.70;;;;;;;11.70;76.59;100247.82;2238162;77;21599;-70
2022/06/02 03:30:20;;;;;;;9.65;6.60;;;;;;;11.69;76.73;100246.67;2249356;77;20994;-70
2022/06/02 03:34:03;;;;;;;7.62;6.40;;;;;;;11.69;76.93;100263.95;2249921;78;21036;-69
2022/06/02 03:37:43;;;;;;;8.70;7.33;;;;;;;11.76;77.19;100273.71;2243641;78;21002;-69
2022/06/02 03:41:07;;;;;;;7.00;6.30;;;;;;;11.64;77.25;100269.27;2241963;77;20947;-69
2022/06/02 03:44:41;;;;;;;8.28;6.55;;;;;;;11.87;77.33;100283.19;2242175;78;21025;-70
2022/06/02 03:48:00;;;;;;;9.23;7.28;;;;;;;11.94;77.19;100302.79;2238975;78;20962;-70
2022/06/02 03:51:24;;;;;;;10.25;6.72;;;;;;;12.01;77.48;100340.16;2240637;78;20986;-70
2022/06/02 03:54:48;;;;;;;9.63;7.92;;;;;;;12.01;77.52;100348.95;2246692;78;21057;-70
2022/06/02 03:58:04;;;;;;;8.60;7.28;;;;;;;12.03;77.51;100344.30;2244280;78;21539;-73
2022/06/02 04:01:09;;;;;;;8.75;6.95;;;;;;;12.04;77.59;100337.98;2238406;78;21039;-73
2022/06/02 04:04:26;;;;;;;9.20;6.40;;;;;;;12.06;77.56;100350.61;2246037;77;20939;-73
2022/06/02 04:07:50;;;;;;;7.70;5.92;;;;;;;12.04;77.44;100344.63;2254826;77;21492;-70
2022/06/02 04:11:12;;;;;;;9.50;5.80;;;;;;;12.07;76.98;100360.23;2249216;77;21013;-70
2022/06/02 04:14:36;;;;;;;12.47;7.20;;;;;;;12.11;76.62;100353.59;2253913;77;21346;-70
2022/06/02 04:18:02;;;;;;;8.63;6.22;;;;;;;12.13;76.27;100368.54;2248434;77;21519;-70
2022/06/02 04:21:41;;;;;;;7.25;5.25;;;;;;;12.13;76.01;100371.20;2250275;77;21136;-70
2022/06/02 04:25:07;;;;;;;8.33;5.35;;;;;;;12.17;75.81;100364.55;2257858;77;20961;-70
2022/06/02 04:28:30;;;;;;;7.65;4.80;;;;;;;12.28;75.36;100377.48;2257845;77;20966;-70
2022/06/02 04:31:58;;;;;;;5.97;4.80;;;;;;;12.41;75.17;100382.25;2245275;77;21024;-70
2022/06/02 04:35:36;;;;;;;5.80;4.35;;;;;;;12.45;74.78;100391.06;2252966;77;20950;-69
2022/06/02 04:38:46;;;;;;;7.55;3.80;;;;;;;12.59;74.31;100405.48;2247289;77;20954;-69
2022/06/02 04:42:18;;;;;;;6.17;3.95;;;;;;;12.61;74.02;100414.61;2253628;77;21069;-69
2022/06/02 04:46:06;;;;;;;3.80;3.05;;;;;;;12.56;73.64;100419.96;2252185;77;21486;-71
2022/06/02 04:49:27;;;;;;;4.53;3.60;;;;;;;12.48;72.90;100429.81;2250555;77;20964;-69
2022/06/02 04:53:11;;;;;;;3.67;2.77;;;;;;;12.40;72.76;100414.69;2255160;77;21027;-70
2022/06/02 04:56:42;;;;;;;5.85;2.85;;;;;;;12.36;72.85;100428.50;2252223;77;21048;-70
2022/06/02 04:59:53;;;;;;;;;;;;;;;12.23;72.77;100431.70;2251042;77;21052;-70
2022/06/02 05:03:22;;;;;;;2.72;2.15;;;;;;;12.15;72.68;100440.52;2256454;77;20190;-69
2022/06/02 05:06:28;;;;;;;4.65;2.77;;;;;;;12.06;72.73;100439.70;2249986;77;22340;-69
2022/06/02 05:10:16;;;;;;;3.20;2.60;;;;;;;12.01;72.90;100433.23;2248777;77;21387;-69
2022/06/02 05:13:54;;;;;;;3.47;3.02;;;;;;;12.03;73.05;100440.55;2246378;78;20978;-68
2022/06/02 05:17:39;;;;;;;5.25;3.25;;;;;;;12.07;73.21;100440.53;2246064;78;20967;-67
2022/06/02 05:21:14;;;;;;;5.03;3.83;;;;;;;12.01;73.26;100424.75;2241255;77;20971;-67
2022/06/02 05:24:46;;;;;;;3.45;2.85;;;;;;;12.19;73.26;100466.28;2243437;78;21083;-70
2022/06/02 05:28:37;;;;;;;3.98;3.05;;;;;;;12.19;73.18;100472.93;2239669;77;20959;-71
2022/06/02 05:32:08;;;;;;;4.50;3.00;;;;;;;12.23;73.29;100472.44;2240675;78;20954;-69
2022/06/02 05:35:44;;;;;;;3.10;2.70;;;;;;;12.21;73.38;100470.94;2245049;78;21001;-70
2022/06/02 05:39:14;;;;;;;5.83;3.17;;;;;;;12.20;73.69;100475.94;2249227;78;20931;-67
2022/06/02 05:42:44;;;;;;;4.60;3.10;;;;;;;12.19;73.89;100479.11;2243533;78;20998;-73
2022/06/02 05:46:32;;;;;;;6.40;3.45;;;;;;;12.22;73.92;100480.57;2250975;78;21045;-70
2022/06/02 05:50:31;;;;;;;4.90;3.40;;;;;;;12.25;74.16;100473.61;2153742;80;21017;-69
2022/06/02 05:53:57;;;;;;;5.28;3.80;;;;;;;12.32;74.32;100483.89;2240874;78;21505;-70
2022/06/02 05:57:37;;;;;;;6.25;3.70;;;;;;;12.48;74.86;100491.02;2244457;78;20943;-70
2022/06/02 06:01:04;;;;;;;8.05;3.90;;;;;;;12.58;74.90;100489.48;2243886;76;21010;-70
2022/06/02 06:04:19;;;;;;;6.20;4.20;;;;;;;12.63;74.59;100484.48;2250353;78;21028;-71
2022/06/02 06:08:15;;;;;;;10.00;3.77;;;;;;;12.81;75.13;100497.09;2245179;78;21072;-70
2022/06/02 06:11:51;;;;;;;5.97;3.27;;;;;;;13.10;75.18;100482.31;2254469;77;20966;-71
2022/06/02 06:15:23;;;;;;;4.00;3.15;;;;;;;13.23;74.64;100495.88;2252006;77;22320;-71
2022/06/02 06:18:38;;;;;;;6.72;3.30;;;;;;;13.28;74.20;100476.23;2235280;78;20955;-71
2022/06/02 06:22:31;;;;;;;4.65;3.40;;;;;;;13.09;73.86;100492.14;2249212;77;20946;-73
2022/06/02 06:25:57;;;;;;;4.92;3.40;;;;;;;13.04;73.90;100512.31;2251891;77;20974;-73
2022/06/02 06:29:36;;;;;;;8.83;3.15;;;;;;;12.96;74.56;100511.84;2247441;77;20930;-71
2022/06/02 06:33:03;;;;;;;2.65;2.45;;;;;;;12.88;73.47;100496.71;2193006;77;21551;-75
2022/06/02 06:36:21;;;;;;;2.65;2.27;;;;;;;12.86;73.62;100512.02;2251733;77;21007;-71
2022/06/02 06:39:46;;;;;;;2.83;2.42;;;;;;;13.37;74.48;100520.48;2247364;77;20993;-76
2022/06/02 06:42:59;;;;;;;4.80;3.05;;;;;;;13.86;73.45;100518.02;2222032;78;21010;-70
2022/06/02 06:46:21;;;;;;;4.08;3.00;;;;;;;13.83;72.42;100525.87;2245095;77;20994;-72
2022/06/02 06:49:50;;;;;;;3.70;2.83;;;;;;;13.78;72.45;100524.23;2228586;77;20974;-71
2022/06/02 06:53:46;;;;;;;3.05;2.80;;;;;;;13.94;72.43;100525.95;2254927;77;21006;-70
2022/06/02 06:56:57;;;;;;;3.30;3.00;;;;;;;14.70;72.21;100525.95;2251948;77;21048;-72
2022/06/02 07:00:09;;;;;;;3.10;2.80;;;;;;;15.66;71.49;100522.20;2249467;77;21002;-74
2022/06/02 07:03:22;;;;;;;3.72;3.20;;;;;;;16.16;69.79;100517.42;2246600;77;20958;-74
2022/06/02 07:06:46;;;;;;;3.55;2.83;;;;;;;16.71;68.73;100519.78;2248719;77;20982;-71
2022/06/02 07:10:08;;;;;;;3.25;2.95;;;;;;;17.17;67.50;100521.88;2239125;78;20939;-72
2022/06/02 07:13:30;;;;;;;3.40;3.08;;;;;;;17.62;66.46;100523.58;2245058;78;21025;-71
2022/06/02 07:16:37;;;;;;;3.62;3.15;;;;;;;17.92;65.06;100513.34;2243763;78;21045;-71
2022/06/02 07:20:14;;;;;;;3.50;3.30;;;;;;;18.26;64.24;100509.62;2246825;78;21425;-73
2022/06/02 07:23:43;;;;;;;3.27;3.02;;;;;;;18.61;63.58;100514.73;2244442;78;21076;-73
2022/06/02 07:26:58;;;;;;;4.10;3.10;;;;;;;18.89;61.86;100519.05;2236241;78;20958;-71
2022/06/02 07:30:28;;;;;;;3.40;2.85;;;;;;;19.01;61.76;100511.98;2243070;77;22362;-72
2022/06/02 07:33:53;;;;;;;3.75;3.33;;;;;;;19.26;60.44;100516.95;2242114;78;21524;-71
2022/06/02 07:37:29;;;;;;;4.72;3.20;;;;;;;19.44;58.47;100519.45;2240483;78;21145;-69
2022/06/02 07:40:58;;;;;;;3.75;3.45;;;;;;;19.36;57.80;100520.52;2224737;78;20938;-70
2022/06/02 07:44:30;;;;;;;3.58;3.25;;;;;;;19.59;57.96;100528.56;2238792;78;21500;-69
2022/06/02 07:47:55;;;;;;;3.80;3.35;;;;;;;19.81;57.59;100530.44;2240689;78;20994;-69
2022/06/02 07:51:11;;;;;;;4.05;3.65;;;;;;;20.22;56.57;100535.31;2242800;78;21037;-68
2022/06/02 07:54:39;;;;;;;3.52;3.22;;;;;;;20.41;55.39;100530.78;2229773;78;21091;-70
2022/06/02 07:57:51;;;;;;;4.53;3.27;;;;;;;20.48;54.82;100526.69;2245534;78;21056;-72
2022/06/02 08:01:07;;;;;;;4.35;3.47;;;;;;;20.50;55.05;100536.20;2239029;78;21085;-68
2022/06/02 08:04:22;;;;;;;2.95;2.70;;;;;;;20.92;55.12;100539.13;2241414;78;20967;-69
2022/06/02 08:07:29;;;;;;;3.62;3.02;;;;;;;21.20;54.24;100545.84;2249843;78;21006;-68
2022/06/02 08:10:57;;;;;;;4.12;3.15;;;;;;;21.40;53.68;100549.66;2249177;77;21081;-70
2022/06/02 08:14:28;;;;;;;4.67;3.12;;;;;;;21.53;51.28;100548.67;2244595;77;21017;-71
2022/06/02 08:17:41;;;;;;;4.33;2.95;;;;;;;21.47;52.10;100556.63;2245787;77;20978;-70
2022/06/02 08:20:59;;;;;;;5.95;3.15;;;;;;;21.53;52.06;100556.24;2243649;77;20959;-71
2022/06/02 08:24:12;;;;;;;4.25;3.42;;;;;;;21.36;50.80;100559.25;2253325;77;20946;-70
2022/06/02 08:27:47;;;;;;;2.92;2.70;;;;;;;21.43;50.85;100559.50;2252664;77;22074;-70
2022/06/02 08:31:12;;;;;;;2.67;2.47;;;;;;;21.64;50.06;100560.87;2253365;77;21335;-70
2022/06/02 08:34:40;;;;;;;2.70;2.50;;;;;;;21.59;49.28;100566.13;2251544;77;21031;-71
2022/06/02 08:38:07;;;;;;;2.83;2.62;;;;;;;21.78;49.08;100570.14;2153981;81;21014;-71
2022/06/02 08:41:29;;;;;;;3.60;2.40;;;;;;;21.64;48.30;100569.50;2152462;78;21015;-69
2022/06/02 08:44:58;;;;;;;3.80;2.70;;;;;;;21.90;47.62;100569.11;2248249;77;21022;-70
2022/06/02 08:48:28;;;;;;;3.62;2.42;;;;;;;22.00;47.46;100568.56;2209600;77;20981;-72
2022/06/02 08:52:17;;;;;;;2.40;2.20;;;;;;;22.03;46.38;100572.69;2245867;77;21044;-70
2022/06/02 08:55:58;;;;;;;4.15;2.35;;;;;;;21.99;46.83;100580.94;2245780;77;21033;-74
2022/06/02 08:59:29;;;;;;;2.35;2.15;;;;;;;22.02;46.58;100580.48;2247703;77;21438;-70
2022/06/02 09:02:44;;;;;;;3.33;2.40;;;;;;;22.19;46.21;100576.61;2259173;77;21006;-70
2022/06/02 09:06:17;;;;;;;2.65;2.40;;;;;;;21.98;45.76;100573.91;2248261;77;20946;-69
2022/06/02 09:09:58;;;;;;;3.65;2.45;;;;;;;21.71;45.45;100585.10;2249032;77;20962;-69
2022/06/02 09:13:16;;;;;;;2.37;2.17;;;;;;;21.38;45.88;100583.64;2240952;78;20982;-69
2022/06/02 09:16:35;;;;;;;2.30;2.10;;;;;;;21.62;45.55;100577.00;2232904;78;22306;-70
2022/06/02 09:19:59;;;;;;;3.12;2.30;;;;;;;21.69;45.57;100577.75;2247423;77;21515;-72
2022/06/02 09:23:24;;;;;;;2.42;2.27;;;;;;;21.89;44.76;100590.97;2241483;78;21500;-72
2022/06/02 09:26:51;;;;;;;2.55;2.00;;;;;;;21.99;45.44;100584.99;2243776;77;21029;-73
2022/06/02 09:30:03;;;;;;;2.40;2.20;;;;;;;22.08;44.72;100584.98;2237019;78;21012;-74
2022/06/02 09:33:38;;;;;;;2.80;2.20;;;;;;;22.03;44.31;100592.95;2236700;77;20947;-69
2022/06/02 09:37:13;;;;;;;1.82;1.72;;;;;;;22.04;43.54;100595.41;2244401;78;21488;-70
2022/06/02 09:40:55;;;;;;;1.85;1.72;;;;;;;21.97;43.96;100582.54;2244334;78;21035;-70
2022/06/02 09:44:20;;;;;;;2.08;1.67;;;;;;;22.22;43.72;100589.16;2247435;78;21073;-69
2022/06/02 09:47:43;;;;;;;1.62;1.52;;;;;;;22.34;43.48;100594.04;2241601;78;21013;-70
2022/06/02 09:51:42;;;;;;;4.62;1.82;;;;;;;22.53;43.57;100569.63;2247875;78;20958;-71
2022/06/02 09:55:31;;;;;;;5.28;1.50;;;;;;;22.61;42.53;100585.50;2241909;78;20939;-71
2022/06/02 09:59:06;;;;;;;2.52;1.70;;;;;;;22.86;43.65;100591.17;2245365;78;21048;-75
2022/06/02 10:02:47;;;;;;;2.27;1.75;;;;;;;23.07;42.84;100583.02;2249273;78;21036;-70
2022/06/02 10:06:30;;;;;;;1.72;1.50;;;;;;;23.09;42.68;100589.00;2241218;78;21038;-71
2022/06/02 10:09:58;;;;;;;3.22;1.72;;;;;;;23.00;41.23;100589.39;2242787;77;21481;-70
2022/06/02 10:13:47;;;;;;;1.80;1.70;;;;;;;22.90;42.04;100596.42;2241848;77;21097;-71
2022/06/02 10:17:17;;;;;;;4.53;1.90;;;;;;;22.86;41.54;100594.70;2189420;77;22243;-70
2022/06/02 10:21:00;;;;;;;2.25;1.65;;;;;;;22.94;41.65;100607.05;2246265;77;21156;-70
2022/06/02 10:24:43;;;;;;;1.70;1.60;;;;;;;23.17;41.60;100601.66;2255079;77;21052;-71
2022/06/02 10:28:19;;;;;;;1.75;1.65;;;;;;;22.90;40.89;100612.66;2250141;77;21338;-71
2022/06/02 10:31:59;;;;;;;1.75;1.50;;;;;;;22.69;41.03;100605.41;2253071;77;21560;-72
2022/06/02 10:35:36;;;;;;;2.00;1.30;;;;;;;22.77;41.11;100606.94;2251157;77;21449;-71
2022/06/02 10:39:08;;;;;;;1.40;1.15;;;;;;;22.62;40.82;100605.25;2255479;77;20958;-69
2022/06/02 10:42:46;;;;;;;4.10;1.30;;;;;;;22.57;40.04;100610.00;2231397;77;20993;-70
2022/06/02 10:46:11;;;;;;;2.20;1.17;;;;;;;22.48;39.69;100606.00;2246236;77;21504;-73
2022/06/02 10:49:53;;;;;;;4.55;1.30;;;;;;;22.46;38.56;100604.86;2254044;77;21048;-72
2022/06/02 10:53:33;;;;;;;1.57;1.20;;;;;;;22.32;39.50;100605.61;2257066;77;21029;-69
2022/06/02 10:56:38;;;;;;;;;;;;;;;22.25;39.68;100603.55;2253616;77;21016;-70
2022/06/02 11:00:20;;;;;;;1.47;1.37;;;;;;;22.54;40.09;100603.70;2249827;77;20113;-70
2022/06/02 11:03:35;;;;;;;3.90;1.07;;;;;;;22.72;39.81;100596.00;2254910;77;21022;-70
2022/06/02 11:07:07;;;;;;;1.50;1.02;;;;;;;22.90;39.60;100601.84;2246746;77;20997;-69
2022/06/02 11:10:20;;;;;;;1.15;0.80;;;;;;;22.92;39.60;100592.93;2245281;77;21010;-68
2022/06/02 11:13:53;;;;;;;5.92;1.20;;;;;;;22.91;38.80;100594.00;2246001;77;20982;-69
2022/06/02 11:17:34;;;;;;;1.57;1.00;;;;;;;22.86;38.70;100587.12;2247920;77;20931;-70
2022/06/02 11:21:15;;;;;;;2.58;1.00;;;;;;;22.83;38.92;100599.23;2255140;77;20942;-71
2022/06/02 11:24:30;;;;;;;1.30;1.20;;;;;;;22.78;38.46;100592.38;2255367;77;21037;-69
2022/06/02 11:27:43;;;;;;;0.93;0.82;;;;;;;22.51;38.21;100592.01;2255381;77;21540;-70
2022/06/02 11:31:28;;;;;;;1.15;1.05;;;;;;;22.36;38.45;100592.47;2250685;77;21016;-74
2022/06/02 11:34:41;;;;;;;2.00;1.20;;;;;;;22.27;37.42;100588.44;2251462;77;20978;-68
2022/06/02 11:38:17;;;;;;;2.37;1.07;;;;;;;22.32;39.07;100596.14;2248586;77;20966;-71
2022/06/02 11:41:26;;;;;;;1.07;1.02;;;;;;;22.35;37.21;100594.86;2247944;77;21558;-68
2022/06/02 11:44:48;;;;;;;0.70;0.70;;;;;;;22.05;38.02;100584.91;2248073;77;21036;-68
2022/06/02 11:48:17;;;;;;;2.67;0.98;;;;;;;22.27;38.52;100583.03;2253660;77;22262;-70
2022/06/02 11:51:35;;;;;;;2.65;1.50;;;;;;;22.42;38.28;100586.13;2250816;77;21024;-69
2022/06/02 11:55:00;;;;;;;1.20;1.10;;;;;;;22.11;37.67;100591.27;2252125;77;20990;-69
2022/06/02 11:58:31;;;;;;;1.25;1.00;;;;;;;22.03;38.20;100582.14;2254645;77;21060;-70
2022/06/02 12:02:16;;;;;;;0.90;0.90;;;;;;;22.08;37.94;100584.98;2250585;77;21524;-71
2022/06/02 12:05:51;;;;;;;2.60;1.15;;;;;;;22.09;37.92;100587.97;2252204;77;21479;-70
2022/06/02 12:09:18;;;;;;;1.20;0.90;;;;;;;22.14;37.80;100582.17;2249658;77;21025;-74
2022/06/02 12:12:45;;;;;;;3.83;1.20;;;;;;;22.16;37.31;100588.70;2252158;77;20990;-70
2022/06/02 12:16:10;;;;;;;0.93;0.90;;;;;;;22.06;37.92;100583.84;2258705;77;21047;-74
2022/06/02 12:19:43;;;;;;;0.82;0.82;;;;;;;22.26;37.97;100593.56;2170750;78;21022;-75
2022/06/02 12:23:11;;;;;;;1.12;0.85;;;;;;;22.44;37.80;100593.98;2248591;77;21535;-68
2022/06/02 12:26:36;;;;;;;0.80;0.80;;;;;;;22.54;37.27;100587.48;2249549;77;20989;-67
2022/06/02 12:30:11;;;;;;;2.02;1.10;;;;;;;22.66;36.83;100590.19;2256487;77;22046;-72
2022/06/02 12:33:44;;;;;;;0.95;0.90;;;;;;;22.55;36.74;100587.27;2248906;77;21453;-68
2022/06/02 12:37:12;;;;;;;0.80;0.78;;;;;;;22.63;37.25;100587.41;2246197;77;21021;-69
2022/06/02 12:40:52;;;;;;;0.60;0.60;;;;;;;22.69;36.67;100587.83;2250447;77;20961;-68
2022/06/02 12:44:05;;;;;;;1.25;0.90;;;;;;;22.64;36.16;100591.78;2247299;77;21005;-68
2022/06/02 12:47:26;;;;;;;1.98;0.60;;;;;;;22.58;36.01;100586.79;2252710;77;20938;-69
2022/06/02 12:50:45;;;;;;;1.32;0.95;;;;;;;22.29;35.46;100598.50;2248633;77;21476;-69
2022/06/02 12:54:01;;;;;;;0.98;0.88;;;;;;;22.27;36.35;100598.75;2252257;77;21056;-69
2022/06/02 12:57:48;;;;;;;0.70;0.70;;;;;;;22.35;36.14;100590.27;2249643;77;20937;-68
2022/06/02 13:01:03;;;;;;;0.75;0.70;;;;;;;22.30;35.77;100583.91;2209706;77;21013;-72
2022/06/02 13:04:42;;;;;;;0.75;0.75;;;;;;;22.36;36.60;100593.82;2244982;77;21060;-74
2022/06/02 13:08:18;;;;;;;2.08;0.70;;;;;;;22.35;35.94;100597.56;2254990;77;21029;-68
2022/06/02 13:12:16;;;;;;;0.90;0.90;;;;;;;22.29;36.01;100600.67;2231347;77;21551;-70
2022/06/02 13:15:42;;;;;;;1.40;0.70;;;;;;;22.23;35.41;100600.25;2257411;77;21069;-69
2022/06/02 13:19:22;;;;;;;0.70;0.70;;;;;;;22.15;36.13;100599.20;2245585;77;21034;-68
2022/06/02 13:22:32;;;;;;;1.98;1.10;;;;;;;22.16;35.90;100597.63;2252531;77;21144;-71
2022/06/02 13:25:49;;;;;;;;;;;;;;;22.04;35.49;100600.81;2246125;77;21360;-69
2022/06/02 13:29:06;;;;;;;2.42;1.00;;;;;;;22.12;35.87;100601.02;2252853;77;20086;-70
2022/06/02 13:32:52;;;;;;;1.35;0.80;;;;;;;22.11;35.69;100600.20;2243785;77;21005;-69
2022/06/02 13:36:20;;;;;;;1.17;0.85;;;;;;;22.20;35.69;100600.72;2247988;77;20895;-69
2022/06/02 13:39:39;;;;;;;1.75;0.82;;;;;;;22.29;35.92;100599.31;2251451;77;20982;-68
2022/06/02 13:43:14;;;;;;;1.00;0.90;;;;;;;22.25;36.13;100604.09;2247288;77;21459;-69
2022/06/02 13:46:41;;;;;;;2.47;0.80;;;;;;;22.20;35.64;100602.59;2235529;77;21029;-70
2022/06/02 13:50:30;;;;;;;0.80;0.80;;;;;;;22.21;35.64;100601.00;2227273;77;21029;-68
2022/06/02 13:58:09;;;;;;;0.62;0.62;;;;;;;22.23;35.65;100605.66;2248618;77;21017;-70
2022/06/02 14:01:48;;;;;;;0.90;0.90;;;;;;;22.32;35.63;100590.73;2253474;77;21489;-69
2022/06/02 14:05:00;;;;;;;1.30;0.80;;;;;;;22.20;35.39;100595.31;2252064;77;20950;-68
2022/06/02 14:08:54;;;;;;;4.72;0.80;;;;;;;22.25;35.83;100607.61;2246240;77;21005;-68
2022/06/02 14:12:32;;;;;;;0.95;0.88;;;;;;;22.19;35.35;100603.13;2254288;77;21010;-67
2022/06/02 14:15:43;;;;;;;1.42;0.90;;;;;;;22.10;35.27;100597.71;2254348;77;21025;-73
2022/06/02 14:19:05;;;;;;;2.27;0.80;;;;;;;22.05;35.82;100600.31;2252482;77;21082;-69
2022/06/02 14:22:53;;;;;;;2.45;1.00;;;;;;;22.11;35.99;100604.25;2240646;77;20959;-67
2022/06/02 14:26:05;;;;;;;1.22;0.70;;;;;;;22.20;36.01;100606.66;2249697;77;21049;-69
2022/06/02 14:29:28;;;;;;;0.98;0.80;;;;;;;22.27;36.29;100610.06;2252259;77;21005;-69
2022/06/02 14:32:50;;;;;;;0.90;0.90;;;;;;;22.24;35.78;100611.88;2248521;77;21504;-69
2022/06/02 14:36:09;;;;;;;0.80;0.78;;;;;;;22.09;35.30;100612.28;2261601;77;20985;-70
2022/06/02 14:39:41;;;;;;;0.75;0.70;;;;;;;22.04;35.40;100609.45;2250033;77;21468;-70
2022/06/02 14:43:29;;;;;;;1.00;0.90;;;;;;;21.97;34.84;100601.45;2249544;77;20993;-70
2022/06/02 14:47:08;;;;;;;0.85;0.75;;;;;;;22.02;35.52;100596.69;2250045;77;21061;-71
2022/06/02 14:50:28;;;;;;;1.17;0.98;;;;;;;22.11;35.70;100598.84;2225906;77;20984;-69
2022/06/02 14:53:55;;;;;;;0.95;0.95;;;;;;;21.96;35.51;100601.13;2255072;77;21579;-70
2022/06/02 14:57:01;;;;;;;0.93;0.93;;;;;;;21.75;35.60;100601.12;2255703;77;20989;-69
2022/06/02 15:00:13;;;;;;;6.10;1.02;;;;;;;21.75;34.75;100595.73;2250495;77;21013;-70
2022/06/02 15:04:01;;;;;;;1.90;1.00;;;;;;;21.70;35.58;100599.64;2249742;77;21354;-69
2022/06/02 15:07:57;;;;;;;1.00;0.90;;;;;;;21.60;35.72;100603.42;2255964;77;20915;-70
2022/06/02 15:11:23;;;;;;;1.12;1.10;;;;;;;21.51;35.99;100599.37;2136114;81;20994;-69
2022/06/02 15:14:59;;;;;;;2.55;1.30;;;;;;;21.41;36.28;100603.44;2151476;80;21034;-70
2022/06/02 15:18:17;;;;;;;1.05;1.00;;;;;;;21.34;36.37;100593.73;2152875;81;20978;-70
2022/06/02 15:21:33;;;;;;;0.90;0.90;;;;;;;21.26;36.47;100596.23;2140511;82;21018;-71
2022/06/02 15:25:00;;;;;;;0.80;0.80;;;;;;;21.23;36.63;100598.00;2129932;82;20959;-70
2022/06/02 15:28:25;;;;;;;5.25;1.05;;;;;;;21.10;36.62;100591.42;2133184;82;21018;-69
2022/06/02 15:31:37;;;;;;;3.22;1.02;;;;;;;20.98;37.20;100596.22;2129514;82;21512;-69
2022/06/02 15:35:13;;;;;;;1.12;0.82;;;;;;;20.97;37.25;100591.85;2136361;81;21122;-71
2022/06/02 15:38:43;;;;;;;2.77;1.15;;;;;;;20.88;36.99;100586.45;2133485;82;21035;-69
2022/06/02 15:42:24;;;;;;;1.07;0.90;;;;;;;20.79;37.52;100587.80;2133872;82;21023;-71
2022/06/02 15:45:49;;;;;;;1.92;1.05;;;;;;;20.76;37.70;100586.37;2140364;82;21013;-69
2022/06/02 15:49:28;;;;;;;4.08;1.77;;;;;;;20.64;37.89;100593.55;2121819;82;20986;-71
2022/06/02 15:53:07;;;;;;;4.05;1.10;;;;;;;20.48;38.07;100598.11;2129218;82;21065;-75
2022/06/02 15:57:02;;;;;;;1.60;1.20;;;;;;;20.27;37.90;100596.11;2108775;82;21039;-71
2022/06/02 16:00:38;;;;;;;2.25;1.35;;;;;;;20.24;38.56;100605.95;2128831;82;21053;-76
2022/06/02 16:04:11;;;;;;;6.45;2.47;;;;;;;20.26;38.32;100605.22;2135732;82;21322;-74
2022/06/02 16:08:03;;;;;;;3.92;1.45;;;;;;;20.16;38.73;100602.20;2117310;82;21037;-70
2022/06/02 16:11:16;;;;;;;9.13;6.25;;;;;;;20.07;38.60;100604.30;2146830;80;20946;-72
2022/06/02 16:14:54;;;;;;;2.10;1.35;;;;;;;19.93;39.36;100610.81;2185454;80;21007;-70
2022/06/02 16:18:27;;;;;;;2.42;1.32;;;;;;;19.91;39.37;100614.27;2162686;81;21085;-71